sensor_id;sensor_type;location;lat;lon;timestamp;temperature;humidity
18648;DHT22;9453;50.294;18.644;2023-01-06T05:03:09;3.70;99.90
18648;DHT22;9453;50.294;18.644;2023-01-06T05:05:37;3.70;99.90
18648;DHT22;9453;50.294;18.644;2023-01-06T05:08:04;3.70;99.90
18648;DHT22;9453;50.294;18.644;2023-01-06T05:10:31;3.60;99.90
18648;DHT22;9453;50.294;18.644;2023-01-06T05:12:58;3.60;99.90
18648;DHT22;9453;50.294;18.644;2023-01-06T05:15:25;3.60;99.90
18648;DHT22;9453;50.294;18.644;2023-01-06T05:17:52;3.70;99.90
18648;DHT22;9453;50.294;18.644;2023-01-06T05:20:29;3.60;99.90
18648;DHT22;9453;50.294;18.644;2023-01-06T05:23:21;3.60;99.90
18648;DHT22;9453;50.294;18.644;2023-01-06T05:26:25;3.50;99.90
18648;DHT22;9453;50.294;18.644;2023-01-06T05:29:29;3.50;99.90
18648;DHT22;9453;50.294;18.644;2023-01-06T05:35:33;3.70;99.90
18648;DHT22;9453;50.294;18.644;2023-01-06T05:41:44;3.70;99.90
18648;DHT22;9453;50.294;18.644;2023-01-06T05:44:11;3.80;99.90
18648;DHT22;9453;50.294;18.644;2023-01-06T05:46:38;3.90;99.90
18648;DHT22;9453;50.294;18.644;2023-01-06T05:49:06;4.00;99.90
18648;DHT22;9453;50.294;18.644;2023-01-06T05:51:34;4.20;99.90
18648;DHT22;9453;50.294;18.644;2023-01-06T05:54:05;4.30;99.90
18648;DHT22;9453;50.294;18.644;2023-01-06T05:56:33;4.30;99.90
18648;DHT22;9453;50.294;18.644;2023-01-06T05:59:02;4.50;99.90
18648;DHT22;9453;50.294;18.644;2023-01-06T06:01:30;4.50;99.90
18648;DHT22;9453;50.294;18.644;2023-01-06T06:03:57;4.60;99.90
18648;DHT22;9453;50.294;18.644;2023-01-06T06:06:26;4.60;99.90
18648;DHT22;9453;50.294;18.644;2023-01-06T06:08:56;4.60;99.90
18648;DHT22;9453;50.294;18.644;2023-01-06T06:11:23;4.60;99.90
18648;DHT22;9453;50.294;18.644;2023-01-06T06:13:51;4.60;99.90
18648;DHT22;9453;50.294;18.644;2023-01-06T06:16:20;4.70;99.90
18648;DHT22;9453;50.294;18.644;2023-01-06T06:18:49;4.70;99.90
18648;DHT22;9453;50.294;18.644;2023-01-06T06:21:18;4.70;99.90
18648;DHT22;9453;50.294;18.644;2023-01-06T06:23:46;4.70;99.90
18648;DHT22;9453;50.294;18.644;2023-01-06T06:26:14;4.70;99.90
18648;DHT22;9453;50.294;18.644;2023-01-06T06:28:42;4.80;99.90
18648;DHT22;9453;50.294;18.644;2023-01-06T06:31:10;4.80;99.90
18648;DHT22;9453;50.294;18.644;2023-01-06T06:33:39;4.70;99.90
18648;DHT22;9453;50.294;18.644;2023-01-06T06:36:08;4.70;99.90
18648;DHT22;9453;50.294;18.644;2023-01-06T06:38:36;4.70;99.90
18648;DHT22;9453;50.294;18.644;2023-01-06T06:41:04;4.70;99.90
18648;DHT22;9453;50.294;18.644;2023-01-06T06:43:33;4.70;99.90
18648;DHT22;9453;50.294;18.644;2023-01-06T06:46:00;4.70;99.90
18648;DHT22;9453;50.294;18.644;2023-01-06T06:48:27;4.70;99.90
18648;DHT22;9453;50.294;18.644;2023-01-06T06:50:55;4.60;99.90
18648;DHT22;9453;50.294;18.644;2023-01-06T06:53:23;4.70;99.90
18648;DHT22;9453;50.294;18.644;2023-01-06T06:55:50;4.70;99.90
18648;DHT22;9453;50.294;18.644;2023-01-06T06:58:17;4.70;99.90
18648;DHT22;9453;50.294;18.644;2023-01-06T07:00:46;4.70;99.90
18648;DHT22;9453;50.294;18.644;2023-01-06T07:03:13;4.70;99.90
18648;DHT22;9453;50.294;18.644;2023-01-06T07:05:41;4.80;99.90
18648;DHT22;9453;50.294;18.644;2023-01-06T07:08:09;4.80;99.90
18648;DHT22;9453;50.294;18.644;2023-01-06T07:10:36;4.90;99.90
18648;DHT22;9453;50.294;18.644;2023-01-06T07:13:03;4.80;99.90
18648;DHT22;9453;50.294;18.644;2023-01-06T07:15:30;5.00;99.90
18648;DHT22;9453;50.294;18.644;2023-01-06T07:18:00;5.00;99.90
18648;DHT22;9453;50.294;18.644;2023-01-06T07:20:28;5.00;99.90
18648;DHT22;9453;50.294;18.644;2023-01-06T07:22:55;5.00;99.90
18648;DHT22;9453;50.294;18.644;2023-01-06T07:25:22;5.00;99.90
18648;DHT22;9453;50.294;18.644;2023-01-06T07:27:52;5.00;99.90
18648;DHT22;9453;50.294;18.644;2023-01-06T07:30:20;5.10;99.90
18648;DHT22;9453;50.294;18.644;2023-01-06T07:32:48;5.10;99.90
18648;DHT22;9453;50.294;18.644;2023-01-06T07:35:17;5.00;99.90
18648;DHT22;9453;50.294;18.644;2023-01-06T07:37:45;5.10;99.90
18648;DHT22;9453;50.294;18.644;2023-01-06T07:40:12;5.10;99.90
18648;DHT22;9453;50.294;18.644;2023-01-06T07:42:39;5.10;99.90
18648;DHT22;9453;50.294;18.644;2023-01-06T07:45:08;5.10;99.90
18648;DHT22;9453;50.294;18.644;2023-01-06T07:47:36;5.20;99.90
18648;DHT22;9453;50.294;18.644;2023-01-06T07:50:04;5.20;99.90
18648;DHT22;9453;50.294;18.644;2023-01-06T07:52:33;5.30;99.90
18648;DHT22;9453;50.294;18.644;2023-01-06T07:55:00;5.30;99.90
18648;DHT22;9453;50.294;18.644;2023-01-06T07:57:28;5.40;99.90
18648;DHT22;9453;50.294;18.644;2023-01-06T07:59:56;5.50;99.90
18648;DHT22;9453;50.294;18.644;2023-01-06T08:02:23;5.50;99.90
18648;DHT22;9453;50.294;18.644;2023-01-06T08:04:50;5.50;99.90
18648;DHT22;9453;50.294;18.644;2023-01-06T08:07:17;5.50;99.90
18648;DHT22;9453;50.294;18.644;2023-01-06T08:09:45;5.50;99.90
18648;DHT22;9453;50.294;18.644;2023-01-06T08:12:12;5.60;99.90
18648;DHT22;9453;50.294;18.644;2023-01-06T08:14:40;5.60;99.90
18648;DHT22;9453;50.294;18.644;2023-01-06T08:17:07;5.70;99.90
18648;DHT22;9453;50.294;18.644;2023-01-06T08:19:34;5.80;99.90
18648;DHT22;9453;50.294;18.644;2023-01-06T08:22:01;5.90;99.90
18648;DHT22;9453;50.294;18.644;2023-01-06T08:24:28;6.00;99.90
18648;DHT22;9453;50.294;18.644;2023-01-06T08:26:57;6.10;99.90
18648;DHT22;9453;50.294;18.644;2023-01-06T08:29:26;6.10;99.90
18648;DHT22;9453;50.294;18.644;2023-01-06T08:31:53;6.20;99.90
18648;DHT22;9453;50.294;18.644;2023-01-06T08:34:20;6.20;99.90
18648;DHT22;9453;50.294;18.644;2023-01-06T08:36:47;6.20;99.90
18648;DHT22;9453;50.294;18.644;2023-01-06T08:39:14;6.10;99.90
18648;DHT22;9453;50.294;18.644;2023-01-06T08:41:41;6.20;99.90
18648;DHT22;9453;50.294;18.644;2023-01-06T08:44:10;6.20;99.90
18648;DHT22;9453;50.294;18.644;2023-01-06T08:46:37;6.10;99.90
18648;DHT22;9453;50.294;18.644;2023-01-06T08:49:04;6.20;99.90
18648;DHT22;9453;50.294;18.644;2023-01-06T08:51:31;6.20;99.90
18648;DHT22;9453;50.294;18.644;2023-01-06T08:53:59;6.20;99.90
18648;DHT22;9453;50.294;18.644;2023-01-06T08:56:28;6.20;99.90
18648;DHT22;9453;50.294;18.644;2023-01-06T08:58:58;6.20;99.90
18648;DHT22;9453;50.294;18.644;2023-01-06T09:01:28;6.30;99.90
18648;DHT22;9453;50.294;18.644;2023-01-06T09:03:56;6.20;99.90
18648;DHT22;9453;50.294;18.644;2023-01-06T09:06:24;6.30;99.90
18648;DHT22;9453;50.294;18.644;2023-01-06T09:08:51;6.20;99.90
18648;DHT22;9453;50.294;18.644;2023-01-06T09:11:18;6.30;99.90
18648;DHT22;9453;50.294;18.644;2023-01-06T09:13:46;6.30;99.90
18648;DHT22;9453;50.294;18.644;2023-01-06T09:16:15;6.30;99.90
18648;DHT22;9453;50.294;18.644;2023-01-06T09:18:43;6.40;99.90
18648;DHT22;9453;50.294;18.644;2023-01-06T09:21:14;6.20;99.70
18648;DHT22;9453;50.294;18.644;2023-01-06T09:23:41;6.20;99.80
18648;DHT22;9453;50.294;18.644;2023-01-06T09:26:09;6.20;99.90
18648;DHT22;9453;50.294;18.644;2023-01-06T09:28:36;6.20;99.90
18648;DHT22;9453;50.294;18.644;2023-01-06T09:31:03;6.30;99.90
18648;DHT22;9453;50.294;18.644;2023-01-06T09:33:30;6.30;99.90
18648;DHT22;9453;50.294;18.644;2023-01-06T09:35:59;6.40;99.90
18648;DHT22;9453;50.294;18.644;2023-01-06T09:38:28;6.40;99.90
18648;DHT22;9453;50.294;18.644;2023-01-06T09:41:48;6.50;99.40
18648;DHT22;9453;50.294;18.644;2023-01-06T09:44:21;6.50;99.00
18648;DHT22;9453;50.294;18.644;2023-01-06T09:46:51;6.60;99.10
18648;DHT22;9453;50.294;18.644;2023-01-06T09:49:24;6.70;99.20
18648;DHT22;9453;50.294;18.644;2023-01-06T09:51:56;6.80;99.00
18648;DHT22;9453;50.294;18.644;2023-01-06T09:54:28;6.80;98.70
18648;DHT22;9453;50.294;18.644;2023-01-06T09:57:01;6.90;98.40
18648;DHT22;9453;50.294;18.644;2023-01-06T09:59:33;6.90;98.20
18648;DHT22;9453;50.294;18.644;2023-01-06T10:02:03;6.90;98.20
18648;DHT22;9453;50.294;18.644;2023-01-06T10:04:31;7.00;98.10
18648;DHT22;9453;50.294;18.644;2023-01-06T10:07:08;6.90;98.00
18648;DHT22;9453;50.294;18.644;2023-01-06T10:09:47;7.00;97.70
18648;DHT22;9453;50.294;18.644;2023-01-06T10:12:26;7.10;98.00
18648;DHT22;9453;50.294;18.644;2023-01-06T10:15:04;7.10;97.50
18648;DHT22;9453;50.294;18.644;2023-01-06T10:17:47;7.10;97.40
18648;DHT22;9453;50.294;18.644;2023-01-06T10:20:46;7.20;97.50
18648;DHT22;9453;50.294;18.644;2023-01-06T10:23:28;7.20;97.20
18648;DHT22;9453;50.294;18.644;2023-01-06T10:26:05;7.20;96.60
18648;DHT22;9453;50.294;18.644;2023-01-06T10:28:39;7.20;96.70
18648;DHT22;9453;50.294;18.644;2023-01-06T10:31:10;7.20;96.90
18648;DHT22;9453;50.294;18.644;2023-01-06T10:33:42;7.20;96.60
18648;DHT22;9453;50.294;18.644;2023-01-06T10:36:12;7.20;96.50
18648;DHT22;9453;50.294;18.644;2023-01-06T10:38:42;7.10;96.80
18648;DHT22;9453;50.294;18.644;2023-01-06T10:41:17;7.30;96.80
18648;DHT22;9453;50.294;18.644;2023-01-06T10:43:45;7.30;96.50
18648;DHT22;9453;50.294;18.644;2023-01-06T10:46:14;7.40;96.70
18648;DHT22;9453;50.294;18.644;2023-01-06T10:48:41;7.40;96.50
18648;DHT22;9453;50.294;18.644;2023-01-06T10:51:29;7.40;96.60
18648;DHT22;9453;50.294;18.644;2023-01-06T10:54:00;7.30;96.60
18648;DHT22;9453;50.294;18.644;2023-01-06T10:56:30;7.40;96.90
18648;DHT22;9453;50.294;18.644;2023-01-06T10:59:05;7.40;96.90
18648;DHT22;9453;50.294;18.644;2023-01-06T11:01:32;7.30;97.10
18648;DHT22;9453;50.294;18.644;2023-01-06T11:04:06;7.40;97.00
18648;DHT22;9453;50.294;18.644;2023-01-06T11:06:38;7.40;97.40
18648;DHT22;9453;50.294;18.644;2023-01-06T11:09:20;7.50;97.30
18648;DHT22;9453;50.294;18.644;2023-01-06T11:11:57;7.60;97.10
18648;DHT22;9453;50.294;18.644;2023-01-06T11:14:28;7.70;97.00
18648;DHT22;9453;50.294;18.644;2023-01-06T11:16:58;7.70;96.80
18648;DHT22;9453;50.294;18.644;2023-01-06T11:19:33;7.70;96.80
18648;DHT22;9453;50.294;18.644;2023-01-06T11:22:04;7.80;96.70
18648;DHT22;9453;50.294;18.644;2023-01-06T11:24:52;7.80;96.60
18648;DHT22;9453;50.294;18.644;2023-01-06T11:27:20;7.80;96.50
18648;DHT22;9453;50.294;18.644;2023-01-06T11:29:47;7.80;96.30
18648;DHT22;9453;50.294;18.644;2023-01-06T11:32:16;7.70;96.20
18648;DHT22;9453;50.294;18.644;2023-01-06T11:34:51;7.80;96.90
18648;DHT22;9453;50.294;18.644;2023-01-06T11:37:29;7.80;97.00
18648;DHT22;9453;50.294;18.644;2023-01-06T11:39:58;7.90;96.90
18648;DHT22;9453;50.294;18.644;2023-01-06T11:42:25;7.90;96.80
18648;DHT22;9453;50.294;18.644;2023-01-06T11:44:53;8.00;96.70
18648;DHT22;9453;50.294;18.644;2023-01-06T11:47:22;8.00;96.80
18648;DHT22;9453;50.294;18.644;2023-01-06T11:49:52;8.10;96.80
18648;DHT22;9453;50.294;18.644;2023-01-06T11:52:22;8.10;96.50
18648;DHT22;9453;50.294;18.644;2023-01-06T11:54:59;8.10;96.30
18648;DHT22;9453;50.294;18.644;2023-01-06T11:57:32;8.20;96.30
18648;DHT22;9453;50.294;18.644;2023-01-06T12:00:25;8.20;96.30
18648;DHT22;9453;50.294;18.644;2023-01-06T12:03:02;8.20;96.30
18648;DHT22;9453;50.294;18.644;2023-01-06T12:05:37;8.30;96.40
18648;DHT22;9453;50.294;18.644;2023-01-06T12:08:13;8.30;96.10
18648;DHT22;9453;50.294;18.644;2023-01-06T12:10:45;8.20;96.40
18648;DHT22;9453;50.294;18.644;2023-01-06T12:13:14;8.20;96.50
18648;DHT22;9453;50.294;18.644;2023-01-06T12:15:43;8.30;96.80
18648;DHT22;9453;50.294;18.644;2023-01-06T12:18:15;8.30;96.60
18648;DHT22;9453;50.294;18.644;2023-01-06T12:20:47;8.40;96.60
18648;DHT22;9453;50.294;18.644;2023-01-06T12:23:19;8.50;96.50
18648;DHT22;9453;50.294;18.644;2023-01-06T12:25:51;8.60;96.40
18648;DHT22;9453;50.294;18.644;2023-01-06T12:28:23;8.60;96.40
18648;DHT22;9453;50.294;18.644;2023-01-06T12:30:57;8.70;96.40
18648;DHT22;9453;50.294;18.644;2023-01-06T12:33:31;8.70;96.10
18648;DHT22;9453;50.294;18.644;2023-01-06T12:36:02;8.70;95.90
18648;DHT22;9453;50.294;18.644;2023-01-06T12:38:40;8.70;96.00
18648;DHT22;9453;50.294;18.644;2023-01-06T12:41:13;8.80;96.00
18648;DHT22;9453;50.294;18.644;2023-01-06T12:43:47;8.80;96.10
18648;DHT22;9453;50.294;18.644;2023-01-06T12:46:20;8.80;96.00
18648;DHT22;9453;50.294;18.644;2023-01-06T12:48:54;8.80;95.90
18648;DHT22;9453;50.294;18.644;2023-01-06T12:51:27;8.80;96.00
18648;DHT22;9453;50.294;18.644;2023-01-06T12:53:59;8.90;96.10
18648;DHT22;9453;50.294;18.644;2023-01-06T12:56:44;9.00;96.20
18648;DHT22;9453;50.294;18.644;2023-01-06T12:59:20;9.00;96.20
18648;DHT22;9453;50.294;18.644;2023-01-06T13:01:56;9.00;96.20
18648;DHT22;9453;50.294;18.644;2023-01-06T13:04:51;9.00;96.00
18648;DHT22;9453;50.294;18.644;2023-01-06T13:07:33;9.00;96.20
18648;DHT22;9453;50.294;18.644;2023-01-06T13:10:12;9.00;96.00
18648;DHT22;9453;50.294;18.644;2023-01-06T13:13:00;9.00;96.00
18648;DHT22;9453;50.294;18.644;2023-01-06T13:15:33;8.90;96.10
18648;DHT22;9453;50.294;18.644;2023-01-06T13:18:10;8.80;96.10
18648;DHT22;9453;50.294;18.644;2023-01-06T13:20:42;8.80;96.30
18648;DHT22;9453;50.294;18.644;2023-01-06T13:23:35;8.80;96.70
18648;DHT22;9453;50.294;18.644;2023-01-06T13:26:37;8.80;96.70
18648;DHT22;9453;50.294;18.644;2023-01-06T13:29:22;8.80;97.00
18648;DHT22;9453;50.294;18.644;2023-01-06T13:32:05;8.80;97.30
18648;DHT22;9453;50.294;18.644;2023-01-06T13:35:13;8.80;97.30
18648;DHT22;9453;50.294;18.644;2023-01-06T13:37:54;8.80;97.70
18648;DHT22;9453;50.294;18.644;2023-01-06T13:40:23;8.80;97.80
18648;DHT22;9453;50.294;18.644;2023-01-06T13:42:54;8.70;97.90
18648;DHT22;9453;50.294;18.644;2023-01-06T13:45:27;8.70;98.00
18648;DHT22;9453;50.294;18.644;2023-01-06T13:47:55;8.70;98.10
18648;DHT22;9453;50.294;18.644;2023-01-06T13:50:25;8.70;98.30
18648;DHT22;9453;50.294;18.644;2023-01-06T13:52:53;8.60;98.40
18648;DHT22;9453;50.294;18.644;2023-01-06T13:55:24;8.50;98.90
18648;DHT22;9453;50.294;18.644;2023-01-06T13:57:53;8.50;99.10
18648;DHT22;9453;50.294;18.644;2023-01-06T14:00:22;8.40;99.40
18648;DHT22;9453;50.294;18.644;2023-01-06T14:03:23;8.40;99.50
18648;DHT22;9453;50.294;18.644;2023-01-06T14:05:52;8.30;99.50
18648;DHT22;9453;50.294;18.644;2023-01-06T14:08:20;8.30;99.90
18648;DHT22;9453;50.294;18.644;2023-01-06T14:10:58;8.30;99.90
18648;DHT22;9453;50.294;18.644;2023-01-06T14:13:30;8.30;99.90
18648;DHT22;9453;50.294;18.644;2023-01-06T14:16:02;8.30;99.90
18648;DHT22;9453;50.294;18.644;2023-01-06T14:18:38;8.30;99.90
18648;DHT22;9453;50.294;18.644;2023-01-06T14:21:16;8.30;99.90
18648;DHT22;9453;50.294;18.644;2023-01-06T14:23:53;8.30;99.90
18648;DHT22;9453;50.294;18.644;2023-01-06T14:26:49;8.40;99.90
18648;DHT22;9453;50.294;18.644;2023-01-06T14:32:58;8.30;99.90
18648;DHT22;9453;50.294;18.644;2023-01-06T14:35:34;8.30;99.90
18648;DHT22;9453;50.294;18.644;2023-01-06T14:38:05;8.20;99.90
18648;DHT22;9453;50.294;18.644;2023-01-06T14:40:37;8.20;99.90
18648;DHT22;9453;50.294;18.644;2023-01-06T14:43:25;8.10;99.90
18648;DHT22;9453;50.294;18.644;2023-01-06T14:45:55;8.10;99.90
18648;DHT22;9453;50.294;18.644;2023-01-06T14:48:26;8.10;99.90
18648;DHT22;9453;50.294;18.644;2023-01-06T14:50:57;8.00;99.90
18648;DHT22;9453;50.294;18.644;2023-01-06T14:53:30;8.00;99.90
18648;DHT22;9453;50.294;18.644;2023-01-06T14:55:58;8.00;99.90
18648;DHT22;9453;50.294;18.644;2023-01-06T14:58:27;8.00;99.90
18648;DHT22;9453;50.294;18.644;2023-01-06T15:00:55;7.90;99.90
18648;DHT22;9453;50.294;18.644;2023-01-06T15:03:23;7.90;99.90
18648;DHT22;9453;50.294;18.644;2023-01-06T15:06:10;7.90;99.90
18648;DHT22;9453;50.294;18.644;2023-01-06T15:08:39;7.90;99.90
18648;DHT22;9453;50.294;18.644;2023-01-06T15:11:19;7.90;99.90
18648;DHT22;9453;50.294;18.644;2023-01-06T15:13:47;7.90;99.90
18648;DHT22;9453;50.294;18.644;2023-01-06T15:16:20;8.00;99.90
18648;DHT22;9453;50.294;18.644;2023-01-06T15:18:49;8.00;99.90
18648;DHT22;9453;50.294;18.644;2023-01-06T15:21:21;8.00;99.90
18648;DHT22;9453;50.294;18.644;2023-01-06T15:23:51;8.00;99.90
18648;DHT22;9453;50.294;18.644;2023-01-06T15:26:23;8.00;99.90
18648;DHT22;9453;50.294;18.644;2023-01-06T15:28:58;8.00;99.90
18648;DHT22;9453;50.294;18.644;2023-01-06T15:31:30;8.00;99.90
18648;DHT22;9453;50.294;18.644;2023-01-06T15:33:58;8.00;99.90
18648;DHT22;9453;50.294;18.644;2023-01-06T15:36:27;8.00;99.90
18648;DHT22;9453;50.294;18.644;2023-01-06T15:38:59;8.00;99.90
18648;DHT22;9453;50.294;18.644;2023-01-06T15:41:27;8.00;99.90
18648;DHT22;9453;50.294;18.644;2023-01-06T15:44:15;8.00;99.90
18648;DHT22;9453;50.294;18.644;2023-01-06T15:46:47;8.00;99.90
18648;DHT22;9453;50.294;18.644;2023-01-06T15:49:24;8.00;99.90
18648;DHT22;9453;50.294;18.644;2023-01-06T15:51:58;8.00;99.90
18648;DHT22;9453;50.294;18.644;2023-01-06T15:54:29;8.00;99.90
18648;DHT22;9453;50.294;18.644;2023-01-06T15:56:58;8.10;99.90
18648;DHT22;9453;50.294;18.644;2023-01-06T15:59:26;8.10;99.90
18648;DHT22;9453;50.294;18.644;2023-01-06T16:01:54;8.10;99.90
18648;DHT22;9453;50.294;18.644;2023-01-06T16:04:22;8.10;99.90
18648;DHT22;9453;50.294;18.644;2023-01-06T16:06:49;8.10;99.90
18648;DHT22;9453;50.294;18.644;2023-01-06T16:09:26;8.10;99.90
18648;DHT22;9453;50.294;18.644;2023-01-06T16:12:14;8.10;99.90
18648;DHT22;9453;50.294;18.644;2023-01-06T16:14:43;8.10;99.90
18648;DHT22;9453;50.294;18.644;2023-01-06T16:17:23;8.10;99.90
18648;DHT22;9453;50.294;18.644;2023-01-06T16:19:54;8.10;99.90
18648;DHT22;9453;50.294;18.644;2023-01-06T16:22:39;8.10;99.90
18648;DHT22;9453;50.294;18.644;2023-01-06T16:25:24;8.10;99.90
18648;DHT22;9453;50.294;18.644;2023-01-06T16:27:52;8.10;99.90
18648;DHT22;9453;50.294;18.644;2023-01-06T16:30:23;8.00;99.90
18648;DHT22;9453;50.294;18.644;2023-01-06T16:32:52;8.00;99.90
18648;DHT22;9453;50.294;18.644;2023-01-06T16:35:21;8.00;99.90
18648;DHT22;9453;50.294;18.644;2023-01-06T16:37:48;8.10;99.90
18648;DHT22;9453;50.294;18.644;2023-01-06T16:40:17;8.00;99.90
18648;DHT22;9453;50.294;18.644;2023-01-06T16:42:46;8.10;99.90
18648;DHT22;9453;50.294;18.644;2023-01-06T16:45:18;8.00;99.90
18648;DHT22;9453;50.294;18.644;2023-01-06T16:47:45;8.00;99.90
18648;DHT22;9453;50.294;18.644;2023-01-06T16:50:24;8.10;99.90
18648;DHT22;9453;50.294;18.644;2023-01-06T16:52:59;8.10;99.90
18648;DHT22;9453;50.294;18.644;2023-01-06T16:55:27;8.10;99.90
18648;DHT22;9453;50.294;18.644;2023-01-06T16:57:56;8.10;99.90
18648;DHT22;9453;50.294;18.644;2023-01-06T17:00:25;8.10;99.90
18648;DHT22;9453;50.294;18.644;2023-01-06T17:02:53;8.20;99.90
18648;DHT22;9453;50.294;18.644;2023-01-06T17:05:25;8.20;99.90
18648;DHT22;9453;50.294;18.644;2023-01-06T17:07:56;8.20;99.90
18648;DHT22;9453;50.294;18.644;2023-01-06T17:10:24;8.20;99.90
18648;DHT22;9453;50.294;18.644;2023-01-06T17:12:54;8.20;99.90
18648;DHT22;9453;50.294;18.644;2023-01-06T17:15:40;8.20;99.90
18648;DHT22;9453;50.294;18.644;2023-01-06T17:18:25;8.10;99.90
18648;DHT22;9453;50.294;18.644;2023-01-06T17:20:58;8.10;99.90
18648;DHT22;9453;50.294;18.644;2023-01-06T17:23:26;8.10;99.90
18648;DHT22;9453;50.294;18.644;2023-01-06T17:25:58;8.00;99.90
18648;DHT22;9453;50.294;18.644;2023-01-06T17:28:30;8.00;99.90
18648;DHT22;9453;50.294;18.644;2023-01-06T17:30:59;8.00;99.90
18648;DHT22;9453;50.294;18.644;2023-01-06T17:33:27;8.00;99.90
18648;DHT22;9453;50.294;18.644;2023-01-06T17:35:55;8.00;99.90
18648;DHT22;9453;50.294;18.644;2023-01-06T17:38:25;8.00;99.90
18648;DHT22;9453;50.294;18.644;2023-01-06T17:40:52;8.00;99.90
18648;DHT22;9453;50.294;18.644;2023-01-06T17:43:24;8.00;99.90
18648;DHT22;9453;50.294;18.644;2023-01-06T17:45:52;8.00;99.90
18648;DHT22;9453;50.294;18.644;2023-01-06T17:48:21;8.00;99.90
18648;DHT22;9453;50.294;18.644;2023-01-06T17:50:49;8.00;99.90
18648;DHT22;9453;50.294;18.644;2023-01-06T17:53:21;8.00;99.90
18648;DHT22;9453;50.294;18.644;2023-01-06T17:56:08;8.00;99.90
18648;DHT22;9453;50.294;18.644;2023-01-06T17:58:37;8.00;99.90
18648;DHT22;9453;50.294;18.644;2023-01-06T18:01:06;8.00;99.90
18648;DHT22;9453;50.294;18.644;2023-01-06T18:03:37;8.10;99.90
18648;DHT22;9453;50.294;18.644;2023-01-06T18:06:22;8.10;99.90
18648;DHT22;9453;50.294;18.644;2023-01-06T18:08:57;8.10;99.90
18648;DHT22;9453;50.294;18.644;2023-01-06T18:11:31;8.10;99.90
18648;DHT22;9453;50.294;18.644;2023-01-06T18:14:15;8.10;99.90
18648;DHT22;9453;50.294;18.644;2023-01-06T18:16:44;8.10;99.90
18648;DHT22;9453;50.294;18.644;2023-01-06T18:19:34;8.10;99.90
18648;DHT22;9453;50.294;18.644;2023-01-06T18:22:07;8.10;99.90
18648;DHT22;9453;50.294;18.644;2023-01-06T18:24:38;8.20;99.90
18648;DHT22;9453;50.294;18.644;2023-01-06T18:27:13;8.20;99.90
18648;DHT22;9453;50.294;18.644;2023-01-06T18:29:42;8.20;99.90
18648;DHT22;9453;50.294;18.644;2023-01-06T18:32:28;8.20;99.90
18648;DHT22;9453;50.294;18.644;2023-01-06T18:34:58;8.20;99.90
18648;DHT22;9453;50.294;18.644;2023-01-06T18:37:28;8.20;99.90
18648;DHT22;9453;50.294;18.644;2023-01-06T18:39:57;8.20;99.90
18648;DHT22;9453;50.294;18.644;2023-01-06T18:42:28;8.20;99.90
18648;DHT22;9453;50.294;18.644;2023-01-06T18:47:49;8.30;99.90
18648;DHT22;9453;50.294;18.644;2023-01-06T18:50:31;8.20;99.90
18648;DHT22;9453;50.294;18.644;2023-01-06T18:53:00;8.20;99.90
18648;DHT22;9453;50.294;18.644;2023-01-06T18:55:36;8.20;99.90
18648;DHT22;9453;50.294;18.644;2023-01-06T18:58:15;8.20;99.90
18648;DHT22;9453;50.294;18.644;2023-01-06T19:00:46;8.20;99.90
18648;DHT22;9453;50.294;18.644;2023-01-06T19:03:32;8.30;99.90
18648;DHT22;9453;50.294;18.644;2023-01-06T19:06:33;8.30;99.90
18648;DHT22;9453;50.294;18.644;2023-01-06T19:09:13;8.30;99.90
18648;DHT22;9453;50.294;18.644;2023-01-06T19:11:41;8.20;99.90
18648;DHT22;9453;50.294;18.644;2023-01-06T19:14:14;8.30;99.90
18648;DHT22;9453;50.294;18.644;2023-01-06T19:16:46;8.30;99.90
18648;DHT22;9453;50.294;18.644;2023-01-06T19:19:26;8.30;99.90
18648;DHT22;9453;50.294;18.644;2023-01-06T19:22:05;8.20;99.90
18648;DHT22;9453;50.294;18.644;2023-01-06T19:24:42;8.30;99.90
18648;DHT22;9453;50.294;18.644;2023-01-06T19:27:38;8.30;99.90
18648;DHT22;9453;50.294;18.644;2023-01-06T19:33:36;8.30;99.90
18648;DHT22;9453;50.294;18.644;2023-01-06T19:36:37;8.30;99.90
18648;DHT22;9453;50.294;18.644;2023-01-06T19:39:30;8.30;99.90
18648;DHT22;9453;50.294;18.644;2023-01-06T19:42:11;8.20;99.90
18648;DHT22;9453;50.294;18.644;2023-01-06T19:44:39;8.20;99.90
18648;DHT22;9453;50.294;18.644;2023-01-06T19:47:15;8.30;99.90
18648;DHT22;9453;50.294;18.644;2023-01-06T19:49:43;8.20;99.90
18648;DHT22;9453;50.294;18.644;2023-01-06T19:52:27;8.30;99.90
18648;DHT22;9453;50.294;18.644;2023-01-06T19:55:10;8.20;99.90
18648;DHT22;9453;50.294;18.644;2023-01-06T19:57:42;8.20;99.90
18648;DHT22;9453;50.294;18.644;2023-01-06T20:00:26;8.20;99.90
18648;DHT22;9453;50.294;18.644;2023-01-06T20:02:55;8.20;99.90
18648;DHT22;9453;50.294;18.644;2023-01-06T20:05:23;8.20;99.90
18648;DHT22;9453;50.294;18.644;2023-01-06T20:07:51;8.20;99.90
18648;DHT22;9453;50.294;18.644;2023-01-06T20:10:19;8.30;99.90
18648;DHT22;9453;50.294;18.644;2023-01-06T20:12:47;8.30;99.90
18648;DHT22;9453;50.294;18.644;2023-01-06T20:15:15;8.30;99.90
18648;DHT22;9453;50.294;18.644;2023-01-06T20:17:42;8.30;99.90
18648;DHT22;9453;50.294;18.644;2023-01-06T20:20:10;8.30;99.90
18648;DHT22;9453;50.294;18.644;2023-01-06T20:22:37;8.30;99.90
18648;DHT22;9453;50.294;18.644;2023-01-06T20:25:04;8.30;99.90
18648;DHT22;9453;50.294;18.644;2023-01-06T20:27:33;8.30;99.90
18648;DHT22;9453;50.294;18.644;2023-01-06T20:30:00;8.30;99.90
18648;DHT22;9453;50.294;18.644;2023-01-06T20:32:29;8.30;99.90
18648;DHT22;9453;50.294;18.644;2023-01-06T20:34:56;8.30;99.90
18648;DHT22;9453;50.294;18.644;2023-01-06T20:37:25;8.30;99.90
18648;DHT22;9453;50.294;18.644;2023-01-06T20:39:52;8.30;99.90
18648;DHT22;9453;50.294;18.644;2023-01-06T20:42:19;8.40;99.90
18648;DHT22;9453;50.294;18.644;2023-01-06T20:44:48;8.30;99.90
18648;DHT22;9453;50.294;18.644;2023-01-06T20:47:15;8.30;99.90
18648;DHT22;9453;50.294;18.644;2023-01-06T20:49:42;8.30;99.90
18648;DHT22;9453;50.294;18.644;2023-01-06T20:52:09;8.30;99.90
18648;DHT22;9453;50.294;18.644;2023-01-06T20:54:39;8.30;99.90
18648;DHT22;9453;50.294;18.644;2023-01-06T20:57:06;8.30;99.90
18648;DHT22;9453;50.294;18.644;2023-01-06T20:59:34;8.30;99.90
18648;DHT22;9453;50.294;18.644;2023-01-06T21:02:03;8.30;99.90
18648;DHT22;9453;50.294;18.644;2023-01-06T21:04:30;8.40;99.90
18648;DHT22;9453;50.294;18.644;2023-01-06T21:06:57;8.40;99.90
18648;DHT22;9453;50.294;18.644;2023-01-06T21:09:24;8.40;99.90
18648;DHT22;9453;50.294;18.644;2023-01-06T21:11:53;8.40;99.90
18648;DHT22;9453;50.294;18.644;2023-01-06T21:14:20;8.40;99.90
18648;DHT22;9453;50.294;18.644;2023-01-06T21:16:48;8.40;99.90
18648;DHT22;9453;50.294;18.644;2023-01-06T21:19:16;8.40;99.90
18648;DHT22;9453;50.294;18.644;2023-01-06T21:21:43;8.40;99.90
18648;DHT22;9453;50.294;18.644;2023-01-06T21:24:10;8.40;99.90
18648;DHT22;9453;50.294;18.644;2023-01-06T21:26:37;8.40;99.90
18648;DHT22;9453;50.294;18.644;2023-01-06T21:29:05;8.40;99.90
18648;DHT22;9453;50.294;18.644;2023-01-06T21:31:32;8.40;99.90
18648;DHT22;9453;50.294;18.644;2023-01-06T21:33:59;8.40;99.90
18648;DHT22;9453;50.294;18.644;2023-01-06T21:36:27;8.40;99.90